Time;durP1;ratioP1;P1;durP2;ratioP2;P2;SDS_P1;SDS_P2;PMS_P1;PMS_P2;Temp;Humidity;BMP_temperature;BMP_pressure;BME280_temperature;BME280_humidity;BME280_pressure;Samples;Min_cycle;Max_cycle;Signal;HPM_P1;HPM_P2
2021/10/13 00:00:48;;;;;;;9.15;5.53;;;4.10;99.90;;;;;;5036997;28;20021;-69
2021/10/13 00:03:15;;;;;;;15.10;5.72;;;4.10;99.90;;;;;;5036771;28;20360;-69
2021/10/13 00:05:42;;;;;;;11.25;5.70;;;4.20;99.90;;;;;;5037389;28;20397;-69
2021/10/13 00:08:09;;;;;;;11.77;5.53;;;4.20;99.90;;;;;;5036849;28;20033;-68
2021/10/13 00:10:37;;;;;;;12.35;4.97;;;4.30;99.90;;;;;;5036210;28;20376;-68
2021/10/13 00:13:05;;;;;;;9.82;5.28;;;4.40;99.90;;;;;;5038255;28;20017;-68
2021/10/13 00:15:33;;;;;;;8.85;5.10;;;4.50;99.90;;;;;;5037636;28;20378;-68
2021/10/13 00:18:00;;;;;;;10.43;5.45;;;4.50;99.90;;;;;;5036743;28;20069;-68
2021/10/13 00:20:27;;;;;;;9.98;5.18;;;4.60;99.90;;;;;;5036697;28;20326;-68
2021/10/13 00:22:54;;;;;;;9.63;5.18;;;4.60;99.90;;;;;;5038125;28;20025;-69
2021/10/13 00:25:22;;;;;;;10.02;4.80;;;4.70;99.90;;;;;;5037531;28;20116;-68
2021/10/13 00:27:49;;;;;;;17.02;5.80;;;4.80;99.90;;;;;;5035713;28;20033;-68
2021/10/13 00:30:17;;;;;;;13.18;6.18;;;4.80;99.90;;;;;;5035458;28;20022;-69
2021/10/13 00:32:45;;;;;;;11.38;5.80;;;4.90;99.90;;;;;;5037100;28;20096;-68
2021/10/13 00:35:12;;;;;;;12.68;5.97;;;5.00;99.90;;;;;;5036430;28;20022;-68
2021/10/13 00:37:39;;;;;;;13.70;5.70;;;5.00;99.90;;;;;;5037014;28;20026;-69
2021/10/13 00:40:08;;;;;;;15.00;6.03;;;5.10;99.90;;;;;;5036956;28;20029;-68
2021/10/13 00:42:35;;;;;;;11.82;7.50;;;5.10;99.90;;;;;;5037497;28;20305;-68
2021/10/13 00:45:06;;;;;;;18.42;7.65;;;5.20;99.90;;;;;;5036384;28;20330;-69
2021/10/13 00:47:35;;;;;;;18.63;8.85;;;5.30;99.90;;;;;;5036258;28;20025;-69
2021/10/13 00:50:12;;;;;;;17.70;9.70;;;5.30;99.90;;;;;;5037220;28;20029;-69
2021/10/13 00:52:41;;;;;;;15.55;8.63;;;5.40;99.90;;;;;;5037480;28;20064;-68
2021/10/13 00:55:17;;;;;;;14.48;8.40;;;5.50;99.90;;;;;;5037207;28;20017;-68
2021/10/13 00:57:47;;;;;;;21.23;9.98;;;5.60;99.90;;;;;;5037429;28;20040;-68
2021/10/13 01:00:16;;;;;;;22.20;10.73;;;5.60;99.90;;;;;;5037182;28;20041;-68
2021/10/13 01:03:19;;;;;;;21.63;11.40;;;5.60;99.90;;;;;;5037318;28;20018;-69
2021/10/13 01:06:13;;;;;;;26.65;12.98;;;5.70;99.90;;;;;;5017234;28;20096;-69
2021/10/13 01:09:15;;;;;;;18.85;10.68;;;5.80;99.90;;;;;;5017547;28;20378;-68
2021/10/13 01:11:49;;;;;;;16.65;10.25;;;5.80;99.90;;;;;;4993929;28;20057;-68
2021/10/13 01:14:35;;;;;;;20.23;10.63;;;5.90;99.90;;;;;;5016621;28;20044;-69
2021/10/13 01:17:38;;;;;;;23.98;11.60;;;5.90;99.90;;;;;;5016877;28;20018;-69
2021/10/13 01:20:11;;;;;;;19.15;10.65;;;5.90;99.90;;;;;;5016351;28;20029;-68
2021/10/13 01:23:12;;;;;;;18.40;10.80;;;5.90;99.90;;;;;;5017839;28;20026;-69
2021/10/13 01:26:10;;;;;;;19.73;10.48;;;6.00;99.90;;;;;;5002610;28;20448;-69
2021/10/13 01:28:43;;;;;;;20.13;11.43;;;6.00;99.90;;;;;;5019993;28;20030;-68
2021/10/13 01:31:28;;;;;;;17.92;10.07;;;6.00;99.90;;;;;;5020180;28;20048;-68
2021/10/13 01:34:21;;;;;;;22.23;11.90;;;6.00;99.90;;;;;;5021002;28;20026;-69
2021/10/13 01:37:06;;;;;;;22.45;10.57;;;6.00;99.90;;;;;;5021110;28;20049;-68
2021/10/13 01:39:39;;;;;;;18.52;9.48;;;6.00;99.90;;;;;;5020756;28;20445;-68
2021/10/13 01:42:07;;;;;;;17.17;9.85;;;6.10;99.90;;;;;;5021353;28;20072;-68
2021/10/13 01:44:36;;;;;;;20.40;10.82;;;6.10;99.90;;;;;;5020662;28;20080;-68
2021/10/13 01:47:05;;;;;;;18.88;11.18;;;6.10;99.90;;;;;;5020900;28;20053;-68
2021/10/13 01:49:34;;;;;;;17.90;9.40;;;6.10;99.90;;;;;;5020404;28;20045;-68
2021/10/13 01:52:03;;;;;;;19.80;9.73;;;6.10;99.90;;;;;;5002384;28;20026;-68
2021/10/13 01:54:32;;;;;;;18.85;10.60;;;6.10;99.90;;;;;;5019871;28;20029;-68
2021/10/13 01:57:01;;;;;;;21.48;10.30;;;6.10;99.90;;;;;;5019534;28;20029;-68
2021/10/13 01:59:31;;;;;;;19.45;10.02;;;6.20;99.90;;;;;;5019482;28;20033;-68
2021/10/13 02:02:00;;;;;;;23.17;11.27;;;6.20;99.90;;;;;;5002039;28;20053;-69
2021/10/13 02:04:28;;;;;;;17.52;10.27;;;6.10;99.90;;;;;;5031735;28;20076;-69
2021/10/13 02:06:56;;;;;;;25.50;10.13;;;6.10;99.90;;;;;;5039388;28;20026;-69
2021/10/13 02:09:28;;;;;;;24.60;10.45;;;6.10;99.90;;;;;;5038996;28;20017;-69
2021/10/13 02:11:58;;;;;;;23.95;9.93;;;6.10;99.90;;;;;;5039832;28;20081;-69
2021/10/13 02:14:27;;;;;;;20.75;9.90;;;6.10;99.90;;;;;;5039888;28;20331;-69
2021/10/13 02:16:56;;;;;;;24.77;10.27;;;6.10;99.90;;;;;;5038956;28;20035;-68
2021/10/13 02:19:28;;;;;;;20.10;9.38;;;6.10;99.90;;;;;;5039755;28;20044;-68
2021/10/13 02:21:57;;;;;;;23.33;10.25;;;6.10;99.90;;;;;;5040339;28;20080;-69
2021/10/13 02:24:38;;;;;;;21.88;9.50;;;6.10;99.90;;;;;;5038645;28;20171;-69
2021/10/13 02:27:23;;;;;;;22.30;9.48;;;6.10;99.90;;;;;;5039834;28;20033;-68
2021/10/13 02:29:51;;;;;;;22.10;10.30;;;6.10;99.90;;;;;;5039677;28;20035;-68
2021/10/13 02:32:18;;;;;;;18.83;9.55;;;6.10;99.90;;;;;;5038960;28;20697;-69
2021/10/13 02:34:46;;;;;;;19.52;9.45;;;6.10;99.90;;;;;;5038137;28;20056;-69
2021/10/13 02:37:13;;;;;;;17.80;10.02;;;6.10;99.90;;;;;;5038542;28;20025;-69
2021/10/13 02:39:41;;;;;;;19.48;9.60;;;6.10;99.90;;;;;;5038566;28;20026;-68
2021/10/13 02:42:09;;;;;;;17.90;9.40;;;6.10;99.90;;;;;;5038594;28;20034;-69
2021/10/13 02:44:37;;;;;;;19.70;9.85;;;6.10;99.90;;;;;;5038405;28;20057;-68
2021/10/13 02:47:45;;;;;;;16.73;9.18;;;6.10;99.90;;;;;;5038922;28;20310;-68
2021/10/13 02:50:25;;;;;;;20.00;9.27;;;6.10;99.90;;;;;;4977840;28;20042;-68
2021/10/13 02:53:10;;;;;;;19.67;8.93;;;6.10;99.90;;;;;;5032180;28;20048;-69
2021/10/13 02:55:48;;;;;;;20.92;9.18;;;6.10;99.90;;;;;;5039689;28;20049;-68
2021/10/13 02:59:05;;;;;;;18.42;8.82;;;6.10;99.90;;;;;;5038017;28;20029;-69
2021/10/13 03:01:39;;;;;;;24.08;8.60;;;6.10;99.90;;;;;;5006059;28;20116;-68
2021/10/13 03:04:15;;;;;;;23.65;9.82;;;6.10;99.90;;;;;;5038636;28;20050;-68
2021/10/13 03:07:04;;;;;;;23.95;8.25;;;6.10;99.90;;;;;;5038953;28;20033;-68
2021/10/13 03:09:39;;;;;;;17.45;8.13;;;6.10;99.90;;;;;;5039353;28;20075;-69
2021/10/13 03:12:09;;;;;;;31.45;8.82;;;6.10;99.90;;;;;;5039067;28;20021;-69
2021/10/13 03:14:41;;;;;;;25.35;7.63;;;6.10;99.90;;;;;;5037882;28;20017;-68
2021/10/13 03:17:09;;;;;;;33.85;7.68;;;6.00;99.90;;;;;;5036691;28;20018;-69
2021/10/13 03:19:39;;;;;;;20.63;8.40;;;6.00;99.90;;;;;;5037867;28;20033;-68
2021/10/13 03:22:08;;;;;;;29.15;8.55;;;6.00;99.90;;;;;;5036606;28;20021;-69
2021/10/13 03:24:35;;;;;;;19.85;8.77;;;5.90;99.90;;;;;;5038174;28;20022;-68
2021/10/13 03:27:03;;;;;;;17.77;8.13;;;5.90;99.90;;;;;;5038356;28;20033;-69
2021/10/13 03:29:31;;;;;;;20.52;7.68;;;5.90;99.90;;;;;;5038030;28;20047;-68
2021/10/13 03:31:58;;;;;;;23.63;7.53;;;5.90;99.90;;;;;;5038641;28;20335;-69
2021/10/13 03:34:26;;;;;;;18.83;7.38;;;5.90;99.90;;;;;;5037663;28;20017;-69
2021/10/13 03:36:53;;;;;;;21.88;8.38;;;5.80;99.90;;;;;;5038576;28;20365;-69
2021/10/13 03:39:21;;;;;;;18.33;8.95;;;5.80;99.90;;;;;;5037319;28;20021;-69
2021/10/13 03:41:49;;;;;;;18.55;8.07;;;5.80;99.90;;;;;;5038337;28;20496;-68
2021/10/13 03:44:19;;;;;;;15.43;7.50;;;5.80;99.90;;;;;;5038710;28;20114;-69
2021/10/13 03:46:47;;;;;;;20.48;8.00;;;5.80;99.90;;;;;;5037678;28;20322;-68
2021/10/13 03:49:14;;;;;;;43.88;9.50;;;5.80;99.90;;;;;;5037016;28;20087;-69
2021/10/13 03:51:42;;;;;;;16.60;8.20;;;5.80;99.90;;;;;;5037101;28;20029;-68
2021/10/13 03:54:10;;;;;;;17.70;7.90;;;5.80;99.90;;;;;;5038413;28;20102;-68
2021/10/13 03:56:38;;;;;;;27.48;8.68;;;5.80;99.90;;;;;;5037772;28;20014;-69
2021/10/13 03:59:05;;;;;;;17.23;7.78;;;5.80;99.90;;;;;;5037562;28;20025;-69
2021/10/13 04:01:32;;;;;;;19.08;9.07;;;5.80;99.90;;;;;;5037064;28;20368;-68
2021/10/13 04:04:00;;;;;;;20.63;9.00;;;5.80;99.90;;;;;;5036769;28;20083;-69
2021/10/13 04:06:28;;;;;;;23.85;8.93;;;5.80;99.90;;;;;;5037671;28;20057;-69
2021/10/13 04:08:55;;;;;;;21.67;8.02;;;5.80;99.90;;;;;;5037386;28;20053;-69
2021/10/13 04:11:23;;;;;;;20.85;8.77;;;5.80;99.90;;;;;;5037376;28;20022;-68
2021/10/13 04:13:50;;;;;;;16.45;7.68;;;5.80;99.90;;;;;;5037057;28;20306;-69
2021/10/13 04:16:17;;;;;;;16.35;7.38;;;5.80;99.90;;;;;;5037457;28;20424;-69
2021/10/13 04:18:45;;;;;;;17.65;8.00;;;5.80;99.90;;;;;;5037564;28;20025;-68
2021/10/13 04:21:12;;;;;;;16.63;7.95;;;5.80;99.90;;;;;;5037590;28;20033;-68
2021/10/13 04:23:40;;;;;;;22.55;8.48;;;5.80;99.90;;;;;;5038124;28;20033;-68
2021/10/13 04:26:07;;;;;;;17.15;7.53;;;5.90;99.90;;;;;;5038058;28;20033;-68
2021/10/13 04:28:34;;;;;;;17.85;6.78;;;5.90;99.90;;;;;;5020099;28;20112;-68
2021/10/13 04:31:01;;;;;;;17.50;7.28;;;5.90;99.90;;;;;;5038008;28;20401;-69
2021/10/13 04:33:29;;;;;;;17.70;8.10;;;5.90;99.90;;;;;;5037371;28;20299;-69
2021/10/13 04:35:56;;;;;;;25.83;7.72;;;5.90;99.90;;;;;;5037305;28;20462;-69
2021/10/13 04:38:24;;;;;;;13.45;7.40;;;5.90;99.90;;;;;;5037013;28;20351;-69
2021/10/13 04:40:51;;;;;;;16.52;7.18;;;5.90;99.90;;;;;;5036448;28;20026;-68
2021/10/13 04:43:18;;;;;;;14.80;7.00;;;6.00;99.90;;;;;;5035525;28;20026;-69
2021/10/13 04:45:46;;;;;;;14.98;6.72;;;6.00;99.90;;;;;;5036417;28;20025;-68
2021/10/13 04:48:14;;;;;;;18.05;7.30;;;6.00;99.90;;;;;;5036324;28;20032;-69
2021/10/13 04:50:42;;;;;;;16.83;7.05;;;6.00;99.90;;;;;;5036797;28;20074;-69
2021/10/13 04:53:09;;;;;;;20.63;7.57;;;6.00;99.90;;;;;;5037056;28;20017;-68
2021/10/13 04:55:37;;;;;;;23.02;7.60;;;6.00;99.90;;;;;;5036785;28;20074;-68
2021/10/13 04:58:05;;;;;;;21.02;7.38;;;6.00;99.90;;;;;;5040229;28;20349;-69
2021/10/13 05:00:32;;;;;;;18.33;7.53;;;6.10;99.90;;;;;;5041846;28;20021;-68
2021/10/13 05:03:01;;;;;;;16.35;7.57;;;6.10;99.90;;;;;;5041303;28;20083;-69
2021/10/13 05:05:29;;;;;;;18.58;8.00;;;6.10;99.90;;;;;;5041124;28;20036;-68
2021/10/13 05:07:56;;;;;;;20.80;7.45;;;6.10;99.90;;;;;;5041529;28;20164;-69
2021/10/13 05:10:24;;;;;;;21.75;7.75;;;6.10;99.90;;;;;;5041064;28;20022;-69
2021/10/13 05:12:51;;;;;;;16.45;7.82;;;6.10;99.90;;;;;;5040138;28;20033;-68
2021/10/13 05:15:20;;;;;;;21.38;8.32;;;6.20;99.90;;;;;;5039962;28;20079;-69
2021/10/13 05:17:48;;;;;;;33.45;8.27;;;6.20;99.90;;;;;;5041437;28;20305;-68
2021/10/13 05:20:16;;;;;;;23.23;10.07;;;6.20;99.90;;;;;;5040161;28;20488;-68
2021/10/13 05:22:44;;;;;;;22.52;8.43;;;6.20;99.90;;;;;;5040089;28;20414;-68
2021/10/13 05:25:11;;;;;;;18.52;8.25;;;6.20;99.90;;;;;;5039931;28;20051;-69
2021/10/13 05:27:38;;;;;;;25.20;9.57;;;6.20;99.90;;;;;;5040377;28;20021;-69
2021/10/13 05:30:06;;;;;;;21.35;9.25;;;6.20;99.90;;;;;;5040353;28;20432;-68
2021/10/13 05:32:33;;;;;;;24.52;9.77;;;6.20;99.90;;;;;;5039931;28;20022;-69
2021/10/13 05:35:01;;;;;;;23.70;9.80;;;6.30;99.90;;;;;;5038609;28;20434;-69
2021/10/13 05:37:29;;;;;;;24.20;9.82;;;6.30;99.90;;;;;;5040254;28;20026;-69
2021/10/13 05:39:56;;;;;;;21.02;9.50;;;6.30;99.90;;;;;;5039674;28;20021;-69
2021/10/13 05:42:24;;;;;;;22.35;9.65;;;6.40;99.90;;;;;;5040471;28;20087;-69
2021/10/13 05:44:51;;;;;;;18.95;9.43;;;6.40;99.90;;;;;;5040522;28;20021;-69
2021/10/13 05:47:18;;;;;;;22.60;10.57;;;6.50;99.90;;;;;;5040526;28;20130;-68
2021/10/13 05:49:46;;;;;;;22.83;9.10;;;6.50;99.90;;;;;;5040841;28;20413;-69
2021/10/13 05:52:14;;;;;;;20.67;9.40;;;6.50;99.90;;;;;;5041120;28;20025;-69
2021/10/13 05:54:42;;;;;;;22.48;11.38;;;6.60;99.90;;;;;;5040405;28;20425;-71
2021/10/13 05:57:10;;;;;;;22.17;9.65;;;6.70;99.90;;;;;;5040974;28;20029;-72
2021/10/13 05:59:38;;;;;;;20.98;9.60;;;6.70;99.90;;;;;;5040645;28;20309;-71
2021/10/13 06:02:06;;;;;;;20.95;9.63;;;6.70;99.90;;;;;;5039914;28;20029;-71
2021/10/13 06:04:34;;;;;;;22.13;9.60;;;6.70;99.90;;;;;;5038948;28;20049;-71
2021/10/13 06:07:01;;;;;;;23.00;9.07;;;6.80;99.90;;;;;;5039967;28;20282;-71
2021/10/13 06:09:30;;;;;;;19.60;8.95;;;6.80;99.90;;;;;;5038840;28;20035;-71
2021/10/13 06:11:57;;;;;;;21.17;10.10;;;6.80;99.90;;;;;;5038101;28;20025;-71
2021/10/13 06:14:25;;;;;;;18.65;9.07;;;6.90;99.90;;;;;;5039114;28;20041;-70
2021/10/13 06:16:52;;;;;;;20.48;9.57;;;6.90;99.90;;;;;;5038113;28;20021;-70
2021/10/13 06:19:20;;;;;;;19.90;8.90;;;6.90;99.90;;;;;;5039213;28;20065;-70
2021/10/13 06:21:48;;;;;;;15.57;8.80;;;6.90;99.90;;;;;;5037894;28;20032;-71
2021/10/13 06:24:16;;;;;;;18.40;8.20;;;7.00;99.90;;;;;;5040264;28;20022;-70
2021/10/13 06:26:43;;;;;;;17.85;8.23;;;7.10;99.90;;;;;;5039899;28;20025;-70
2021/10/13 06:29:11;;;;;;;17.45;7.22;;;7.20;99.90;;;;;;5039623;28;20026;-70
2021/10/13 06:31:39;;;;;;;20.13;8.00;;;7.30;99.90;;;;;;5040172;28;20014;-69
2021/10/13 06:34:06;;;;;;;16.70;7.18;;;7.30;99.90;;;;;;5039924;28;20061;-69
2021/10/13 06:36:34;;;;;;;12.85;7.05;;;7.40;99.90;;;;;;5039746;28;20022;-69
2021/10/13 06:39:01;;;;;;;16.25;6.20;;;7.50;99.90;;;;;;5039497;28;20049;-69
2021/10/13 06:41:29;;;;;;;15.48;6.35;;;7.50;99.90;;;;;;5039498;28;20029;-69
2021/10/13 06:43:57;;;;;;;9.48;5.13;;;7.60;99.90;;;;;;5038499;28;20017;-70
2021/10/13 06:46:24;;;;;;;13.10;5.90;;;7.60;99.90;;;;;;5038508;28;20104;-69
2021/10/13 06:48:52;;;;;;;10.82;5.25;;;7.60;99.90;;;;;;5038805;28;20030;-69
2021/10/13 06:51:20;;;;;;;9.10;4.97;;;7.60;99.90;;;;;;5038877;28;20024;-69
2021/10/13 06:53:47;;;;;;;10.73;4.70;;;7.70;99.90;;;;;;5037153;28;20029;-70
2021/10/13 06:56:15;;;;;;;9.95;4.65;;;7.70;99.90;;;;;;5037132;28;20492;-69
2021/10/13 06:58:43;;;;;;;11.20;4.85;;;7.80;99.90;;;;;;5037136;28;20438;-69
2021/10/13 07:01:10;;;;;;;12.40;4.95;;;7.90;99.90;;;;;;5038710;28;20071;-69
2021/10/13 07:03:45;;;;;;;7.70;4.57;;;8.00;99.90;;;;;;5038691;28;20053;-69
2021/10/13 07:06:12;;;;;;;12.20;5.40;;;8.10;99.90;;;;;;5038058;28;20484;-69
2021/10/13 07:08:39;;;;;;;8.07;4.45;;;8.10;99.90;;;;;;5037994;28;20033;-69
2021/10/13 07:11:11;;;;;;;8.68;4.47;;;8.10;99.90;;;;;;5037985;28;20021;-69
2021/10/13 07:13:39;;;;;;;8.77;4.70;;;8.10;99.90;;;;;;5037953;28;20100;-69
2021/10/13 07:16:06;;;;;;;9.15;4.75;;;8.20;99.90;;;;;;5039044;28;20205;-69
2021/10/13 07:18:34;;;;;;;9.85;4.63;;;8.20;99.90;;;;;;5038340;28;20108;-69
2021/10/13 07:21:03;;;;;;;9.88;5.22;;;8.20;99.90;;;;;;5036761;28;20469;-69
2021/10/13 07:23:31;;;;;;;13.73;5.80;;;8.20;99.90;;;;;;5037965;28;20124;-69
2021/10/13 07:25:59;;;;;;;6.65;3.47;;;8.30;99.90;;;;;;5037724;28;20413;-69
2021/10/13 07:28:28;;;;;;;9.80;4.25;;;8.40;99.90;;;;;;5038961;28;20405;-69
2021/10/13 07:30:55;;;;;;;8.88;4.40;;;8.50;99.90;;;;;;5038857;28;20017;-69
2021/10/13 07:33:24;;;;;;;5.53;2.92;;;8.50;99.90;;;;;;5039273;28;20425;-69
2021/10/13 07:35:53;;;;;;;7.10;3.38;;;8.50;99.90;;;;;;5038429;28;20026;-69
2021/10/13 07:38:20;;;;;;;6.13;3.65;;;8.50;99.90;;;;;;5038505;28;20439;-69
2021/10/13 07:40:49;;;;;;;14.90;4.57;;;8.50;99.90;;;;;;5037312;28;20051;-69
2021/10/13 07:43:17;;;;;;;7.03;3.67;;;8.50;99.90;;;;;;5039052;28;20313;-69
2021/10/13 07:45:44;;;;;;;13.35;5.43;;;8.40;99.90;;;;;;5038829;28;20024;-69
2021/10/13 07:48:12;;;;;;;13.77;4.80;;;8.40;99.90;;;;;;5037456;28;20075;-69
2021/10/13 07:50:39;;;;;;;7.47;4.18;;;8.40;99.90;;;;;;5037261;28;20406;-69
2021/10/13 07:53:08;;;;;;;12.35;4.40;;;8.40;99.90;;;;;;5037962;28;20424;-69
2021/10/13 07:55:36;;;;;;;14.15;4.78;;;8.30;99.90;;;;;;5037738;28;20045;-69
2021/10/13 07:58:04;;;;;;;7.05;4.60;;;8.20;99.90;;;;;;5037745;28;20025;-69
2021/10/13 08:00:32;;;;;;;8.18;3.47;;;8.20;99.90;;;;;;5037132;28;20476;-69
2021/10/13 08:02:59;;;;;;;8.07;4.22;;;8.20;99.90;;;;;;5037265;28;20353;-69
2021/10/13 08:05:27;;;;;;;15.05;4.38;;;8.20;99.90;;;;;;5017178;28;20427;-69
2021/10/13 08:07:55;;;;;;;10.18;4.75;;;8.20;99.90;;;;;;5017203;28;20104;-69
2021/10/13 08:10:23;;;;;;;8.98;4.75;;;8.30;99.90;;;;;;5017632;28;20077;-69
2021/10/13 08:12:50;;;;;;;12.90;4.45;;;8.40;99.90;;;;;;5000813;28;20422;-69
2021/10/13 08:15:18;;;;;;;13.23;4.10;;;8.40;99.90;;;;;;5018037;28;20030;-69
2021/10/13 08:17:45;;;;;;;10.07;4.25;;;8.50;99.90;;;;;;5018011;28;20080;-69
2021/10/13 08:20:14;;;;;;;9.38;4.30;;;8.50;99.90;;;;;;5017866;28;20033;-69
2021/10/13 08:22:42;;;;;;;7.85;3.88;;;8.60;99.90;;;;;;5018129;28;20108;-69
2021/10/13 08:25:11;;;;;;;8.98;4.32;;;8.70;99.90;;;;;;5017917;28;20022;-69
2021/10/13 08:27:39;;;;;;;9.80;4.75;;;8.70;99.90;;;;;;5017779;28;20075;-69
2021/10/13 08:30:07;;;;;;;9.60;4.53;;;8.80;99.90;;;;;;5000000;28;20033;-69
2021/10/13 08:32:34;;;;;;;8.60;4.30;;;8.80;99.90;;;;;;5016734;28;20101;-69
2021/10/13 08:35:02;;;;;;;7.95;4.50;;;8.90;99.90;;;;;;5017716;28;20028;-69
2021/10/13 08:37:30;;;;;;;10.68;4.95;;;8.90;99.90;;;;;;5016961;28;20022;-69
2021/10/13 08:39:58;;;;;;;7.43;4.25;;;8.90;99.90;;;;;;5017212;28;20430;-69
2021/10/13 08:42:28;;;;;;;13.25;4.72;;;8.90;99.90;;;;;;5017369;28;20044;-69
2021/10/13 08:44:57;;;;;;;10.32;4.63;;;8.90;99.90;;;;;;5017175;28;20014;-69
2021/10/13 08:47:24;;;;;;;11.63;4.60;;;8.90;99.90;;;;;;5016658;28;20053;-69
2021/10/13 08:49:53;;;;;;;11.57;4.55;;;8.90;99.90;;;;;;5016502;28;20026;-69
2021/10/13 08:52:20;;;;;;;9.52;4.65;;;8.90;99.90;;;;;;5017395;28;20025;-69
2021/10/13 08:54:48;;;;;;;9.15;4.70;;;9.00;99.90;;;;;;5017505;28;20026;-69
2021/10/13 08:57:21;;;;;;;11.50;4.95;;;9.10;99.90;;;;;;5017493;28;20050;-69
2021/10/13 08:59:50;;;;;;;14.30;4.30;;;9.20;99.90;;;;;;5017451;28;20041;-69
2021/10/13 09:02:45;;;;;;;9.98;4.80;;;9.20;99.90;;;;;;5017570;28;20322;-69
2021/10/13 09:05:17;;;;;;;8.27;4.40;;;9.30;99.90;;;;;;5034973;28;20072;-69
2021/10/13 09:07:49;;;;;;;11.38;4.28;;;9.40;99.90;;;;;;5037090;28;20080;-69
2021/10/13 09:10:37;;;;;;;8.48;4.50;;;9.40;99.90;;;;;;5037410;28;20096;-69
2021/10/13 09:13:15;;;;;;;9.68;4.22;;;9.40;99.90;;;;;;5036644;28;20029;-69
2021/10/13 09:15:54;;;;;;;10.10;4.38;;;9.40;99.90;;;;;;5036159;28;20051;-69
2021/10/13 09:18:48;;;;;;;13.77;4.25;;;9.50;99.90;;;;;;5036127;28;20026;-69
2021/10/13 09:21:16;;;;;;;8.80;4.70;;;9.60;99.90;;;;;;5036567;28;20120;-69
2021/10/13 09:23:43;;;;;;;8.07;4.05;;;9.60;99.90;;;;;;5036970;28;20356;-69
2021/10/13 09:26:12;;;;;;;8.60;4.07;;;9.60;99.90;;;;;;5036135;28;20029;-69
2021/10/13 09:28:41;;;;;;;10.15;4.93;;;9.60;99.90;;;;;;5036552;28;20037;-69
2021/10/13 09:31:15;;;;;;;10.07;4.43;;;9.60;99.90;;;;;;5035162;28;20075;-69
2021/10/13 09:34:14;;;;;;;10.30;4.43;;;9.50;99.90;;;;;;5036544;28;20017;-69
2021/10/13 09:36:47;;;;;;;8.30;4.13;;;9.50;99.90;;;;;;5004287;28;20068;-69
2021/10/13 09:39:18;;;;;;;10.23;3.92;;;9.50;99.90;;;;;;5036844;28;20022;-69
2021/10/13 09:42:00;;;;;;;7.45;3.95;;;9.40;99.90;;;;;;5037488;28;20021;-69
2021/10/13 09:44:30;;;;;;;10.73;4.88;;;9.40;99.90;;;;;;5038823;28;20025;-69
2021/10/13 09:47:02;;;;;;;8.35;4.18;;;9.40;99.90;;;;;;5040752;28;20037;-69
2021/10/13 09:49:35;;;;;;;8.90;4.38;;;9.40;99.90;;;;;;5040179;28;20034;-68
2021/10/13 09:52:08;;;;;;;13.63;4.63;;;9.60;99.90;;;;;;5040454;28;20108;-69
2021/10/13 09:54:36;;;;;;;6.70;3.75;;;9.70;99.90;;;;;;5039474;28;20028;-69
2021/10/13 09:57:27;;;;;;;9.18;4.55;;;9.80;99.90;;;;;;5038286;28;20029;-69
2021/10/13 10:00:13;;;;;;;8.15;3.88;;;9.90;99.90;;;;;;5039309;28;20171;-69
2021/10/13 10:03:02;;;;;;;8.30;4.07;;;10.00;99.90;;;;;;5039900;28;20026;-69
2021/10/13 10:05:37;;;;;;;15.73;5.72;;;10.10;99.90;;;;;;5038110;28;20069;-69
2021/10/13 10:08:07;;;;;;;9.55;4.75;;;10.10;99.90;;;;;;5039762;28;20027;-70
2021/10/13 10:10:36;;;;;;;8.25;4.32;;;10.30;99.90;;;;;;5039355;28;20026;-67
2021/10/13 10:13:08;;;;;;;13.75;5.07;;;10.40;99.90;;;;;;5039632;28;20036;-67
2021/10/13 10:15:47;;;;;;;9.80;4.45;;;10.50;99.90;;;;;;5039830;28;20017;-67
2021/10/13 10:18:32;;;;;;;12.20;4.22;;;10.70;99.90;;;;;;5040529;28;20043;-67
2021/10/13 10:21:19;;;;;;;9.02;4.50;;;10.70;99.90;;;;;;5039833;28;20022;-74
2021/10/13 10:23:49;;;;;;;12.07;4.22;;;10.80;99.90;;;;;;5038627;28;20029;-67
2021/10/13 10:26:26;;;;;;;11.27;4.05;;;10.90;99.90;;;;;;5039908;28;20017;-66
2021/10/13 10:28:57;;;;;;;9.50;4.20;;;11.00;99.90;;;;;;5040253;28;20029;-67
2021/10/13 10:31:31;;;;;;;11.27;4.32;;;10.90;99.90;;;;;;5039689;28;20017;-67
2021/10/13 10:34:09;;;;;;;9.63;5.60;;;10.90;99.90;;;;;;5039131;28;20365;-68
2021/10/13 10:36:40;;;;;;;11.00;3.95;;;11.00;99.90;;;;;;5038828;28;20417;-67
2021/10/13 10:39:10;;;;;;;8.00;4.10;;;11.10;99.90;;;;;;5039090;28;20021;-66
2021/10/13 10:41:55;;;;;;;9.60;4.00;;;11.20;99.90;;;;;;5038598;28;20036;-66
2021/10/13 10:44:33;;;;;;;6.38;3.03;;;11.20;99.90;;;;;;5038816;28;20104;-66
2021/10/13 10:47:06;;;;;;;8.48;3.30;;;11.30;99.90;;;;;;5038663;28;20053;-65
2021/10/13 10:49:46;;;;;;;8.32;3.58;;;11.30;99.90;;;;;;5038274;28;20418;-66
2021/10/13 10:52:23;;;;;;;7.15;3.22;;;11.50;99.90;;;;;;5038879;28;20026;-66
2021/10/13 10:55:05;;;;;;;8.93;3.63;;;11.50;99.90;;;;;;5038078;28;20025;-66
2021/10/13 10:57:39;;;;;;;8.55;3.25;;;11.50;99.90;;;;;;5039235;28;20025;-66
2021/10/13 11:00:31;;;;;;;9.18;3.28;;;11.60;99.90;;;;;;5039562;28;20421;-68
2021/10/13 11:03:40;;;;;;;7.32;3.05;;;11.70;99.90;;;;;;5039433;28;20117;-67
2021/10/13 11:06:26;;;;;;;6.57;2.55;;;11.80;99.90;;;;;;4978782;28;20039;-67
2021/10/13 11:08:57;;;;;;;8.88;3.10;;;11.90;99.90;;;;;;4978161;28;20035;-67
2021/10/13 11:11:27;;;;;;;5.72;3.08;;;11.90;99.90;;;;;;5019310;28;20413;-67
2021/10/13 11:14:09;;;;;;;12.23;3.03;;;12.00;99.90;;;;;;5038008;28;20025;-66
2021/10/13 11:16:39;;;;;;;9.43;3.45;;;12.10;99.90;;;;;;5037980;28;20028;-66
2021/10/13 11:19:19;;;;;;;8.07;2.67;;;12.20;99.90;;;;;;5037689;28;20025;-67
2021/10/13 11:21:55;;;;;;;15.50;3.10;;;12.30;99.90;;;;;;5036882;28;20029;-67
2021/10/13 11:24:22;;;;;;;6.45;3.00;;;12.50;99.90;;;;;;5036665;28;20303;-67
2021/10/13 11:26:50;;;;;;;6.45;2.63;;;12.70;99.90;;;;;;5038309;28;20032;-67
2021/10/13 11:29:24;;;;;;;7.82;2.70;;;12.80;99.90;;;;;;5038061;28;20112;-67
2021/10/13 11:32:10;;;;;;;6.70;2.92;;;12.80;99.90;;;;;;5036707;28;20024;-67
2021/10/13 11:34:38;;;;;;;11.85;3.40;;;12.90;99.90;;;;;;5038032;28;20018;-66
2021/10/13 11:37:06;;;;;;;9.38;3.05;;;12.90;99.90;;;;;;5038160;28;20029;-67
2021/10/13 11:39:36;;;;;;;16.55;3.65;;;13.00;99.90;;;;;;5038440;28;20021;-67
2021/10/13 11:42:13;;;;;;;8.10;2.78;;;13.00;99.90;;;;;;5038454;28;20029;-66
2021/10/13 11:44:51;;;;;;;7.60;2.75;;;13.00;99.90;;;;;;5038281;28;20049;-67
2021/10/13 11:47:30;;;;;;;5.22;2.33;;;13.00;99.90;;;;;;5038491;28;20049;-67
2021/10/13 11:50:10;;;;;;;9.45;2.80;;;13.00;99.90;;;;;;5036992;28;20025;-67
2021/10/13 11:52:43;;;;;;;4.50;2.33;;;12.90;99.90;;;;;;5038574;28;20024;-67
2021/10/13 11:55:19;;;;;;;7.82;2.70;;;12.70;99.90;;;;;;5037046;28;20101;-67
2021/10/13 11:58:03;;;;;;;8.68;2.58;;;12.50;99.90;;;;;;5037860;28;20399;-67
2021/10/13 12:00:33;;;;;;;7.88;3.47;;;12.30;99.90;;;;;;5037345;28;20021;-67
2021/10/13 12:03:04;;;;;;;10.85;2.90;;;12.20;99.90;;;;;;5037786;28;20041;-67
2021/10/13 12:05:38;;;;;;;6.07;2.40;;;12.10;99.90;;;;;;5037503;28;20068;-67
2021/10/13 12:08:08;;;;;;;6.13;2.83;;;12.10;99.90;;;;;;5037045;28;20393;-66
2021/10/13 12:10:45;;;;;;;7.35;2.95;;;12.10;99.90;;;;;;5036846;28;20418;-67
2021/10/13 12:13:15;;;;;;;9.85;2.45;;;12.10;99.90;;;;;;5037578;28;20029;-66
2021/10/13 12:15:47;;;;;;;7.97;2.15;;;12.20;99.90;;;;;;5035769;28;20384;-67
2021/10/13 12:18:23;;;;;;;4.45;2.20;;;12.30;99.90;;;;;;5035753;28;20025;-66
2021/10/13 12:21:15;;;;;;;13.35;2.85;;;12.50;99.90;;;;;;5037366;28;20484;-66
2021/10/13 12:23:48;;;;;;;9.00;2.70;;;12.60;99.90;;;;;;5037597;28;20029;-66
2021/10/13 12:26:19;;;;;;;7.75;2.95;;;12.60;99.90;;;;;;5037595;28;20021;-66
2021/10/13 12:28:51;;;;;;;6.20;2.60;;;12.70;99.90;;;;;;5037961;28;20072;-67
2021/10/13 12:31:24;;;;;;;6.72;2.45;;;12.70;99.90;;;;;;5037994;28;20028;-66
2021/10/13 12:34:01;;;;;;;4.50;1.88;;;12.70;99.90;;;;;;5037677;28;20077;-66
2021/10/13 12:36:37;;;;;;;11.07;2.55;;;12.80;99.90;;;;;;5037689;28;20053;-66
2021/10/13 12:39:09;;;;;;;10.48;2.50;;;12.90;99.90;;;;;;5037100;28;20021;-66
2021/10/13 12:41:43;;;;;;;6.47;1.77;;;13.00;99.90;;;;;;5036584;28;20029;-67
2021/10/13 12:44:24;;;;;;;7.82;2.97;;;13.20;99.90;;;;;;5036395;28;20029;-67
2021/10/13 12:47:00;;;;;;;5.78;1.60;;;13.30;99.90;;;;;;5035421;28;20022;-67
2021/10/13 12:49:40;;;;;;;9.57;1.85;;;13.40;99.90;;;;;;5037110;28;20105;-67
2021/10/13 12:52:26;;;;;;;4.35;1.38;;;13.30;99.90;;;;;;5036597;28;20018;-66
2021/10/13 12:54:55;;;;;;;3.83;1.33;;;13.20;99.90;;;;;;5036363;28;20101;-67
2021/10/13 12:57:28;;;;;;;4.00;1.63;;;13.20;99.90;;;;;;5036303;28;20449;-67
2021/10/13 12:59:58;;;;;;;4.20;1.65;;;13.20;99.90;;;;;;5036154;28;20038;-67
2021/10/13 13:02:26;;;;;;;5.65;1.77;;;13.20;99.90;;;;;;5037517;28;20101;-67
2021/10/13 13:04:55;;;;;;;9.88;1.60;;;13.20;99.90;;;;;;5036997;28;20057;-66
2021/10/13 13:07:23;;;;;;;4.75;1.70;;;13.10;99.90;;;;;;5037360;28;20044;-67
2021/10/13 13:09:50;;;;;;;6.40;1.85;;;13.00;99.90;;;;;;5037064;28;20029;-67
2021/10/13 13:12:18;;;;;;;7.78;2.28;;;12.90;99.90;;;;;;5037263;28;20024;-67